KESC/ESC METAR and TAF weather

Enter ICAO airport designator
Station Type Date Time Source
KESC METAR 2019/06/18 14:56 UTC NOAA

KESC 181456Z AUTO 18007KT 10SM BKN080 17/13 A2993 RMK AO2 SLP138 60000 T01670133 56009


Station Type Date Time Source
KESC Decoded METAR 2019/06/18 14:56 UTC NOAA

Escanaba, MI, United States (KESC) 45-45N 087-02W 187M
Jun 18, 2019 - 10:56 AM EDT / 2019.06.18 1456 UTC
Wind: from the S (180 degrees) at 8 MPH (7 KT):0
Visibility: 10 mile(s):0
Sky conditions: mostly cloudy
Temperature: 62.1 F (16.7 C)
Dew Point: 55.9 F (13.3 C)
Relative Humidity: 80%
Pressure (altimeter): 29.93 in. Hg (1013 hPa)
Pressure tendency: 0.03 inches (0.9 hPa) lower than three hours ago
ob: KESC 181456Z AUTO 18007KT 10SM BKN080 17/13 A2993 RMK AO2 SLP138 60000 T01670133 56009
cycle: 15

Station Type Date Time Source
KESC TAF UTC NOAA

Error!

Example: see airport list